createdAt,value
2023-04-18T00:01:29.271Z,83.89
2023-04-18T00:04:34.290Z,83.36
2023-04-18T00:07:37.248Z,83.77
2023-04-18T00:10:39.960Z,84.05
2023-04-18T00:13:42.879Z,83.87
2023-04-18T00:16:47.187Z,82.89
2023-04-18T00:19:50.104Z,82.80
2023-04-18T00:22:53.625Z,82.96
2023-04-18T00:25:56.580Z,83.94
2023-04-18T00:28:59.219Z,82.67
2023-04-18T00:32:01.932Z,83.11
2023-04-18T00:35:07.260Z,83.06
2023-04-18T00:38:10.019Z,82.08
2023-04-18T00:41:12.629Z,81.63
2023-04-18T00:44:15.784Z,81.32
2023-04-18T00:47:21.704Z,81.88
2023-04-18T00:50:24.876Z,82.15
2023-04-18T00:53:27.745Z,81.41
2023-04-18T00:56:30.851Z,81.20
2023-04-18T00:59:36.165Z,81.19
2023-04-18T01:02:40.183Z,80.50
2023-04-18T01:05:43.131Z,80.42
2023-04-18T01:08:46.153Z,81.13
2023-04-18T01:11:48.785Z,80.90
2023-04-18T01:14:52.276Z,81.30
2023-04-18T01:17:55.854Z,81.26
2023-04-18T01:21:00.906Z,80.41
2023-04-18T01:24:15.524Z,82.36
2023-04-18T01:27:18.604Z,81.37
2023-04-18T01:30:21.338Z,83.19
2023-04-18T01:33:23.983Z,82.82
2023-04-18T01:36:27.508Z,82.72
2023-04-18T01:39:30.363Z,83.10
2023-04-18T01:42:33.007Z,83.78
2023-04-18T01:45:35.717Z,82.51
2023-04-18T01:48:38.348Z,83.61
2023-04-18T01:51:41.429Z,83.55
2023-04-18T01:54:44.032Z,82.39
2023-04-18T01:57:48.353Z,83.04
2023-04-18T02:00:52.916Z,82.27
2023-04-18T02:03:57.327Z,82.49
2023-04-18T02:07:00.783Z,81.46
2023-04-18T02:10:03.849Z,82.01
2023-04-18T02:13:07.390Z,82.64
2023-04-18T02:16:14.022Z,82.36
2023-04-18T02:19:19.250Z,82.81
2023-04-18T02:22:22.041Z,81.85
2023-04-18T02:25:27.269Z,82.12
2023-04-18T02:28:29.917Z,82.51
2023-04-18T02:31:33.287Z,82.40
2023-04-18T02:34:36.945Z,82.86
2023-04-18T02:37:39.689Z,82.95
2023-04-18T02:40:42.507Z,83.07
2023-04-18T02:43:45.894Z,83.00
2023-04-18T02:46:51.205Z,82.57
2023-04-18T02:49:54.069Z,82.70
2023-04-18T02:52:57.429Z,83.03
2023-04-18T02:56:09.146Z,82.69
2023-04-18T02:59:30.276Z,83.07
2023-04-18T03:02:53.593Z,83.03
2023-04-18T03:06:11.505Z,84.33
2023-04-18T03:09:14.955Z,85.52
2023-04-18T03:12:22.473Z,85.74
2023-04-18T03:15:25.277Z,85.44
2023-04-18T03:18:29.144Z,85.34
2023-04-18T03:21:34.381Z,85.26
2023-04-18T03:24:37.297Z,85.42
2023-04-18T03:27:43.514Z,85.43
2023-04-18T03:30:48.779Z,85.65
2023-04-18T03:33:52.149Z,85.59
2023-04-18T03:36:56.866Z,85.24
2023-04-18T03:40:00.588Z,84.50
2023-04-18T03:43:05.905Z,86.31
2023-04-18T03:46:08.947Z,85.84
2023-04-18T03:49:13.145Z,86.21
2023-04-18T03:52:16.556Z,85.90
2023-04-18T03:55:22.724Z,85.40
2023-04-18T03:58:26.520Z,84.85
2023-04-18T04:01:30.429Z,84.02
2023-04-18T04:04:33.302Z,84.14
2023-04-18T04:07:36.342Z,85.00
2023-04-18T04:10:39.604Z,85.61
2023-04-18T04:13:42.678Z,85.01
2023-04-18T04:16:47.971Z,84.39
2023-04-18T04:19:52.983Z,84.52
2023-04-18T04:22:59.237Z,85.30
2023-04-18T04:26:04.928Z,83.89
2023-04-18T04:29:24.136Z,84.24
2023-04-18T04:32:28.986Z,82.97
2023-04-18T04:35:32.515Z,83.46
2023-04-18T04:38:38.765Z,83.17
2023-04-18T04:41:42.239Z,80.78
2023-04-18T04:44:46.964Z,72.23
2023-04-18T04:47:51.470Z,71.86
2023-04-18T04:50:58.388Z,73.08
2023-04-18T04:54:02.313Z,74.59
2023-04-18T04:57:05.771Z,74.35
2023-04-18T05:00:09.463Z,75.18
2023-04-18T05:03:13.060Z,75.40
2023-04-18T05:06:20.828Z,75.31
2023-04-18T05:09:23.695Z,74.60
2023-04-18T05:12:27.224Z,73.23
2023-04-18T05:15:31.553Z,73.11
2023-04-18T05:18:35.120Z,73.21
2023-04-18T05:21:38.076Z,73.92
2023-04-18T05:24:41.879Z,74.01
2023-04-18T05:27:45.964Z,74.08
2023-04-18T05:30:48.692Z,73.36
2023-04-18T05:33:51.665Z,73.53
2023-04-18T05:36:57.021Z,74.66
2023-04-18T05:40:00.970Z,75.42
2023-04-18T05:43:04.531Z,75.87
2023-04-18T05:46:07.403Z,76.09
2023-04-18T05:49:10.269Z,76.95
2023-04-18T05:52:13.051Z,76.98
2023-04-18T05:55:15.994Z,77.09
2023-04-18T05:58:18.723Z,77.42
2023-04-18T06:01:21.964Z,77.60
2023-04-18T06:04:24.848Z,77.56
2023-04-18T06:07:27.741Z,77.26
2023-04-18T06:10:30.611Z,77.31
2023-04-18T06:13:33.495Z,77.51
2023-04-18T06:16:39.391Z,77.50
2023-04-18T06:19:42.243Z,77.72
2023-04-18T06:22:45.104Z,78.21
2023-04-18T06:25:47.919Z,77.14
2023-04-18T06:28:50.680Z,76.72
2023-04-18T06:31:56.373Z,76.43
2023-04-18T06:34:59.157Z,75.22
2023-04-18T06:38:01.947Z,74.44
2023-04-18T06:41:04.912Z,73.47
2023-04-18T06:44:09.752Z,74.02
2023-04-18T06:47:12.757Z,73.66
2023-04-18T06:50:16.778Z,72.49
2023-04-18T06:53:19.744Z,73.21
2023-04-18T06:56:22.618Z,72.83
2023-04-18T06:59:25.790Z,71.69
2023-04-18T07:02:28.875Z,71.94
2023-04-18T07:05:31.727Z,71.90
2023-04-18T07:08:34.953Z,71.76
2023-04-18T07:11:37.976Z,71.38
2023-04-18T07:14:40.738Z,70.62
2023-04-18T07:17:43.620Z,69.12
2023-04-18T07:20:46.424Z,68.80
2023-04-18T07:23:49.119Z,69.13
2023-04-18T07:26:54.787Z,67.77
2023-04-18T07:29:58.167Z,67.47
2023-04-18T07:33:01.188Z,66.34
2023-04-18T07:36:04.152Z,65.72
2023-04-18T07:39:07.428Z,65.67
2023-04-18T07:42:11.647Z,65.06
2023-04-18T07:45:15.806Z,65.49
2023-04-18T07:48:18.610Z,64.71
2023-04-18T07:51:22.409Z,64.67
2023-04-18T07:54:25.164Z,65.13
2023-04-18T07:57:27.813Z,65.42
2023-04-18T08:00:33.222Z,64.39
2023-04-18T08:03:37.445Z,66.25
2023-04-18T08:06:40.279Z,65.80
2023-04-18T08:09:42.933Z,65.58
2023-04-18T08:12:46.040Z,65.50
2023-04-18T08:15:49.041Z,64.83
2023-04-18T08:18:52.048Z,65.31
2023-04-18T08:21:55.454Z,63.80
2023-04-18T08:25:05.578Z,62.62
2023-04-18T08:28:09.199Z,63.05
2023-04-18T08:31:13.445Z,63.39
2023-04-18T08:34:16.317Z,63.41
2023-04-18T08:37:19.184Z,61.84
2023-04-18T08:40:22.119Z,62.03
2023-04-18T08:43:25.690Z,61.59
2023-04-18T08:46:30.312Z,62.25
2023-04-18T08:49:33.190Z,62.66
2023-04-18T08:52:36.895Z,61.80
2023-04-18T08:55:41.158Z,61.39
2023-04-18T08:58:45.502Z,61.24
2023-04-18T09:02:01.787Z,59.67
2023-04-18T09:05:12.280Z,58.98
2023-04-18T09:08:33.432Z,59.81
2023-04-18T09:11:36.163Z,61.01
2023-04-18T09:14:43.239Z,61.45
2023-04-18T09:17:53.603Z,61.52
2023-04-18T09:20:57.118Z,60.74
2023-04-18T09:24:18.601Z,62.75
2023-04-18T09:27:22.726Z,63.03
2023-04-18T09:30:37.166Z,61.13
2023-04-18T09:33:43.359Z,61.65
2023-04-18T09:36:46.100Z,61.60
2023-04-18T09:39:50.258Z,62.42
2023-04-18T09:42:54.755Z,62.82
2023-04-18T09:45:57.487Z,62.24
2023-04-18T09:49:00.158Z,62.70
2023-04-18T09:52:04.993Z,60.83
2023-04-18T09:55:13.258Z,60.88
2023-04-18T09:58:16.858Z,60.70
2023-04-18T10:01:19.864Z,60.30
2023-04-18T10:04:22.799Z,59.70
2023-04-18T10:07:26.580Z,59.97
2023-04-18T10:10:29.815Z,58.92
2023-04-18T10:13:35.011Z,57.88
2023-04-18T10:16:38.523Z,57.93
2023-04-18T10:19:42.296Z,57.15
2023-04-18T10:22:45.145Z,57.17
2023-04-18T10:25:48.990Z,57.02
2023-04-18T10:28:57.240Z,54.67
2023-04-18T10:32:07.025Z,54.42
2023-04-18T10:35:11.356Z,56.51
2023-04-18T10:38:17.744Z,54.19
2023-04-18T10:41:27.504Z,54.24
2023-04-18T10:44:30.321Z,54.84
2023-04-18T10:47:33.561Z,53.93
2023-04-18T10:51:14.843Z,53.13
2023-04-18T10:54:28.808Z,52.84
2023-04-18T10:57:39.248Z,52.76
2023-04-18T11:00:42.225Z,52.68
2023-04-18T11:03:45.265Z,53.01
2023-04-18T11:06:55.212Z,51.69
2023-04-18T11:09:58.076Z,52.01
2023-04-18T11:13:04.879Z,50.64
2023-04-18T11:16:08.285Z,49.03
2023-04-18T11:19:21.684Z,47.92
2023-04-18T11:22:24.504Z,51.15
2023-04-18T11:25:29.726Z,49.20
2023-04-18T11:28:33.221Z,48.49
2023-04-18T11:31:38.614Z,47.96
2023-04-18T11:34:41.583Z,48.34
2023-04-18T11:37:47.642Z,47.23
2023-04-18T11:40:51.405Z,46.80
2023-04-18T11:43:54.366Z,48.57
2023-04-18T11:46:58.102Z,47.28
2023-04-18T11:50:02.739Z,46.14
2023-04-18T11:53:05.591Z,47.46
2023-04-18T11:56:08.372Z,46.28
2023-04-18T11:59:11.547Z,45.81
2023-04-18T12:02:16.827Z,47.12
2023-04-18T12:05:28.086Z,46.59
2023-04-18T12:08:32.591Z,45.65
2023-04-18T12:11:35.341Z,46.50
2023-04-18T12:14:38.074Z,45.02
2023-04-18T12:17:48.962Z,44.88
2023-04-18T12:20:54.432Z,46.03
2023-04-18T12:23:59.016Z,45.67
2023-04-18T12:27:02.174Z,45.40
2023-04-18T12:30:05.411Z,47.42
2023-04-18T12:33:09.648Z,44.67
2023-04-18T12:36:12.409Z,44.34
2023-04-18T12:39:15.284Z,44.20
2023-04-18T12:42:18.043Z,43.81
2023-04-18T12:45:22.154Z,44.53
2023-04-18T12:48:24.939Z,43.94
2023-04-18T12:51:28.237Z,43.80
2023-04-18T12:54:31.091Z,42.89
2023-04-18T12:57:34.222Z,43.06
2023-04-18T13:00:39.633Z,43.40
2023-04-18T13:03:42.498Z,44.21
2023-04-18T13:06:46.215Z,43.58
2023-04-18T13:09:49.034Z,44.08
2023-04-18T13:12:53.210Z,42.78
2023-04-18T13:15:56.170Z,42.80
2023-04-18T13:18:59.169Z,44.72
2023-04-18T13:22:02.225Z,44.74
2023-04-18T13:25:06.232Z,44.92
2023-04-18T13:28:09.085Z,45.21
2023-04-18T13:31:12.016Z,45.27
2023-04-18T13:34:14.823Z,45.16
2023-04-18T13:37:17.976Z,45.65
2023-04-18T13:40:21.153Z,46.25
2023-04-18T13:43:23.960Z,45.92
2023-04-18T13:46:29.517Z,45.16
2023-04-18T13:49:36.705Z,46.47
2023-04-18T13:52:39.643Z,44.07
2023-04-18T13:55:43.029Z,44.51
2023-04-18T13:58:45.877Z,44.10
2023-04-18T14:01:49.718Z,44.50
2023-04-18T14:04:54.663Z,44.50
2023-04-18T14:08:02.780Z,43.56
2023-04-18T14:11:05.836Z,43.47
2023-04-18T14:14:08.641Z,43.19
2023-04-18T14:17:11.738Z,43.61
2023-04-18T14:20:20.914Z,42.20
2023-04-18T14:23:23.910Z,41.95
2023-04-18T14:26:26.752Z,41.02
2023-04-18T14:29:29.684Z,42.06
2023-04-18T14:32:32.887Z,42.52
2023-04-18T14:35:35.706Z,42.46
2023-04-18T14:38:42.576Z,42.76
2023-04-18T14:41:46.151Z,43.67
2023-04-18T14:44:49.131Z,42.24
2023-04-18T14:47:52.032Z,41.01
2023-04-18T14:50:59.587Z,40.38
2023-04-18T14:54:02.481Z,41.00
2023-04-18T14:57:05.292Z,42.57
2023-04-18T15:00:11.545Z,41.76
2023-04-18T15:03:14.682Z,41.80
2023-04-18T15:06:20.298Z,42.23
2023-04-18T15:09:22.986Z,41.07
2023-04-18T15:12:26.108Z,40.81
2023-04-18T15:15:30.881Z,40.58
2023-04-18T15:18:34.029Z,41.29
2023-04-18T15:21:37.369Z,40.68
2023-04-18T15:24:40.336Z,41.47
2023-04-18T15:27:43.671Z,41.00
2023-04-18T15:30:46.843Z,39.49
2023-04-18T15:33:52.091Z,40.00
2023-04-18T15:36:55.215Z,40.23
2023-04-18T15:39:57.925Z,39.77
2023-04-18T15:43:00.859Z,40.18
2023-04-18T15:46:04.527Z,39.91
2023-04-18T15:49:07.582Z,40.34
2023-04-18T15:52:10.343Z,40.89
2023-04-18T15:55:13.892Z,40.83
2023-04-18T15:58:17.191Z,40.82
2023-04-18T16:01:21.198Z,41.20
2023-04-18T16:04:24.874Z,41.94
2023-04-18T16:07:27.679Z,42.74
2023-04-18T16:10:30.596Z,42.83
2023-04-18T16:13:33.615Z,43.84
2023-04-18T16:16:36.708Z,43.62
2023-04-18T16:19:41.286Z,43.74
2023-04-18T16:22:44.112Z,45.04
2023-04-18T16:25:47.171Z,44.28
2023-04-18T16:28:49.944Z,43.80
2023-04-18T16:31:53.309Z,43.50
2023-04-18T16:34:56.611Z,43.41
2023-04-18T16:37:59.475Z,43.80
2023-04-18T16:41:02.974Z,43.26
2023-04-18T16:44:05.954Z,43.58
2023-04-18T16:47:21.386Z,43.70
2023-04-18T16:50:25.247Z,44.31
2023-04-18T16:53:28.189Z,43.35
2023-04-18T16:56:31.088Z,44.04
2023-04-18T16:59:35.106Z,44.46
2023-04-18T17:02:39.979Z,43.92
2023-04-18T17:05:42.828Z,44.38
2023-04-18T17:08:46.142Z,45.12
2023-04-18T17:11:49.366Z,44.69
2023-04-18T17:14:52.038Z,45.76
2023-04-18T17:17:56.731Z,46.01
2023-04-18T17:20:59.551Z,46.06
2023-04-18T17:24:04.209Z,46.43
2023-04-18T17:27:06.912Z,46.42
2023-04-18T17:30:10.456Z,46.20
2023-04-18T17:33:13.239Z,46.23
2023-04-18T17:36:16.204Z,47.49
2023-04-18T17:39:19.054Z,47.04
2023-04-18T17:42:21.987Z,47.09
2023-04-18T17:45:24.881Z,46.20
2023-04-18T17:48:27.663Z,46.75
2023-04-18T17:51:31.319Z,47.34
2023-04-18T17:54:34.717Z,46.84
2023-04-18T17:57:38.003Z,46.17
2023-04-18T18:00:41.363Z,47.19
2023-04-18T18:03:44.993Z,46.51
2023-04-18T18:06:57.641Z,45.78
2023-04-18T18:10:01.371Z,46.70
2023-04-18T18:13:04.608Z,46.48
2023-04-18T18:16:08.292Z,45.90
2023-04-18T18:19:11.249Z,46.57
2023-04-18T18:22:14.102Z,46.59
2023-04-18T18:25:17.094Z,46.24
2023-04-18T18:28:20.355Z,45.72
2023-04-18T18:31:25.170Z,46.13
2023-04-18T18:34:30.279Z,46.62
2023-04-18T18:37:33.336Z,46.89
2023-04-18T18:40:36.124Z,46.77
2023-04-18T18:43:38.991Z,46.69
2023-04-18T18:46:43.157Z,46.84
2023-04-18T18:49:46.215Z,47.08
2023-04-18T18:52:49.078Z,45.17
2023-04-18T18:55:51.959Z,45.47
2023-04-18T18:58:57.681Z,44.81
2023-04-18T19:02:00.921Z,45.38
2023-04-18T19:05:04.444Z,45.10
2023-04-18T19:08:07.380Z,45.21
2023-04-18T19:11:10.693Z,44.56
2023-04-18T19:14:14.129Z,44.25
2023-04-18T19:17:22.292Z,45.30
2023-04-18T19:20:26.963Z,45.21
2023-04-18T19:23:31.609Z,45.61
2023-04-18T19:26:34.471Z,46.18
2023-04-18T19:29:37.289Z,46.94
2023-04-18T19:32:40.403Z,46.25
2023-04-18T19:35:43.671Z,46.22
2023-04-18T19:38:46.519Z,46.89
2023-04-18T19:41:49.213Z,46.82
2023-04-18T19:44:51.968Z,47.45
2023-04-18T19:47:54.847Z,48.21
2023-04-18T19:50:57.837Z,49.14
2023-04-18T19:54:00.834Z,48.46
2023-04-18T19:57:04.972Z,48.58
2023-04-18T20:00:09.679Z,47.65
2023-04-18T20:03:17.312Z,48.94
2023-04-18T20:06:20.533Z,48.26
2023-04-18T20:09:23.563Z,48.81
2023-04-18T20:12:26.733Z,48.17
2023-04-18T20:15:30.751Z,48.73
2023-04-18T20:18:36.211Z,48.99
2023-04-18T20:21:38.977Z,49.20
2023-04-18T20:24:41.916Z,49.90
2023-04-18T20:27:44.733Z,49.90
2023-04-18T20:30:48.325Z,49.79
2023-04-18T20:33:51.195Z,49.70
2023-04-18T20:36:54.127Z,49.97
2023-04-18T20:39:59.031Z,49.85
2023-04-18T20:43:03.522Z,49.81
2023-04-18T20:46:07.910Z,50.31
2023-04-18T20:49:11.199Z,50.08
2023-04-18T20:52:14.749Z,50.39
2023-04-18T20:55:17.702Z,51.12
2023-04-18T20:58:27.689Z,50.05
2023-04-18T21:01:31.363Z,50.25
2023-04-18T21:04:34.364Z,50.39
2023-04-18T21:07:37.530Z,50.15
2023-04-18T21:10:40.647Z,50.53
2023-04-18T21:13:43.791Z,50.48
2023-04-18T21:16:46.581Z,50.38
2023-04-18T21:19:52.103Z,50.98
2023-04-18T21:22:54.942Z,51.19
2023-04-18T21:25:58.049Z,50.43
2023-04-18T21:29:02.315Z,50.84
2023-04-18T21:32:05.376Z,51.07
2023-04-18T21:35:08.737Z,51.02
2023-04-18T21:38:11.578Z,50.62
2023-04-18T21:41:16.115Z,50.92
2023-04-18T21:44:19.261Z,51.38
2023-04-18T21:47:22.342Z,51.22
2023-04-18T21:50:25.490Z,51.76
2023-04-18T21:53:28.168Z,51.56
2023-04-18T21:56:31.005Z,52.07
2023-04-18T21:59:33.692Z,51.57
2023-04-18T22:02:36.674Z,51.85
2023-04-18T22:05:40.395Z,52.24
2023-04-18T22:08:43.427Z,52.22
2023-04-18T22:11:46.658Z,52.33
2023-04-18T22:14:49.266Z,52.56
2023-04-18T22:17:52.328Z,53.03
2023-04-18T22:20:57.850Z,52.64
2023-04-18T22:24:00.990Z,54.11
2023-04-18T22:27:06.234Z,54.50
2023-04-18T22:30:09.551Z,55.25
2023-04-18T22:33:12.330Z,55.60
2023-04-18T22:36:15.319Z,55.50
2023-04-18T22:39:18.264Z,56.61
2023-04-18T22:42:21.066Z,56.37
2023-04-18T22:45:23.857Z,56.89
2023-04-18T22:48:26.666Z,56.81
2023-04-18T22:51:29.366Z,56.98
2023-04-18T22:54:32.167Z,57.81
2023-04-18T22:57:35.006Z,57.43
2023-04-18T23:00:37.747Z,57.36
2023-04-18T23:03:40.869Z,57.78
2023-04-18T23:06:43.561Z,57.91
2023-04-18T23:09:46.374Z,57.98
2023-04-18T23:12:49.070Z,58.24
2023-04-18T23:15:51.899Z,58.71
2023-04-18T23:18:54.624Z,59.31
2023-04-18T23:21:57.412Z,58.14
2023-04-18T23:25:00.073Z,58.55
2023-04-18T23:28:02.991Z,57.99
2023-04-18T23:31:06.590Z,58.26
2023-04-18T23:34:10.468Z,58.03
2023-04-18T23:37:13.264Z,57.60
2023-04-18T23:40:16.044Z,58.09
2023-04-18T23:43:18.883Z,57.74
2023-04-18T23:46:21.741Z,56.91
2023-04-18T23:49:24.614Z,57.69
2023-04-18T23:52:27.303Z,58.47
2023-04-18T23:55:30.075Z,58.18
2023-04-18T23:58:32.846Z,59.34
